Time;durP1;ratioP1;P1;durP2;ratioP2;P2;SDS_P1;SDS_P2;PMS_P1;PMS_P2;Temp;Humidity;BMP_temperature;BMP_pressure;BME280_temperature;BME280_humidity;BME280_pressure;Samples;Min_cycle;Max_cycle;Signal;HPM_P1;HPM_P2
2021/04/26 00:00:18;;;;;;;11.73;3.47;;;2.10;79.10;;;;;;5047760;28;21619;-78
2021/04/26 00:02:44;;;;;;;10.00;3.03;;;2.00;79.20;;;;;;5064889;28;20101;-77
2021/04/26 00:05:12;;;;;;;8.18;2.78;;;2.00;79.20;;;;;;5053611;28;20041;-78
2021/04/26 00:07:38;;;;;;;11.23;3.42;;;1.90;79.50;;;;;;5071146;28;20068;-77
2021/04/26 00:10:06;;;;;;;16.30;3.80;;;1.90;79.20;;;;;;5043231;28;20854;-76
2021/04/26 00:12:32;;;;;;;13.23;3.40;;;1.90;79.40;;;;;;5064776;28;20439;-79
2021/04/26 00:14:57;;;;;;;13.93;3.28;;;1.80;79.90;;;;;;5071039;28;20033;-77
2021/04/26 00:17:23;;;;;;;7.38;3.10;;;1.80;80.20;;;;;;5076492;28;20481;-78
2021/04/26 00:19:50;;;;;;;9.60;3.65;;;1.70;80.20;;;;;;5081944;28;20499;-78
2021/04/26 00:22:16;;;;;;;8.05;2.88;;;1.70;80.30;;;;;;5056343;28;20028;-79
2021/04/26 00:24:42;;;;;;;8.35;3.13;;;1.60;80.30;;;;;;5064130;28;20166;-79
2021/04/26 00:27:08;;;;;;;10.40;3.38;;;1.60;80.50;;;;;;5078499;28;20126;-79
2021/04/26 00:29:34;;;;;;;9.43;3.03;;;1.50;80.30;;;;;;5077163;28;20027;-78
2021/04/26 00:32:00;;;;;;;9.27;2.92;;;1.50;80.40;;;;;;5079300;28;20043;-78
2021/04/26 00:34:26;;;;;;;15.73;3.22;;;1.40;80.70;;;;;;5077128;28;20256;-79
2021/04/26 00:36:52;;;;;;;8.95;2.50;;;1.40;80.80;;;;;;5069923;28;20037;-76
2021/04/26 00:39:17;;;;;;;8.80;2.72;;;1.30;80.70;;;;;;5049724;28;20055;-79
2021/04/26 00:41:43;;;;;;;7.18;2.53;;;1.40;80.70;;;;;;5052906;28;20423;-80
2021/04/26 00:44:09;;;;;;;3.88;2.17;;;1.20;81.60;;;;;;5096052;27;20028;-79
2021/04/26 00:46:35;;;;;;;13.75;3.00;;;1.10;81.10;;;;;;5074491;28;20024;-79
2021/04/26 00:49:01;;;;;;;10.25;3.40;;;1.10;81.20;;;;;;5068065;28;20254;-79
2021/04/26 00:51:28;;;;;;;7.18;3.13;;;1.00;81.70;;;;;;5083925;28;20709;-79
2021/04/26 00:53:54;;;;;;;8.88;3.00;;;1.10;81.20;;;;;;5093954;28;20035;-79
2021/04/26 00:56:20;;;;;;;9.95;2.83;;;1.00;81.10;;;;;;5082648;28;20044;-80
2021/04/26 00:58:46;;;;;;;7.40;2.80;;;1.00;81.30;;;;;;5111099;27;20032;-78
2021/04/26 01:01:12;;;;;;;5.63;2.33;;;1.00;81.40;;;;;;5076643;28;20029;-79
2021/04/26 01:03:38;;;;;;;7.18;2.72;;;0.90;81.10;;;;;;5091566;28;20032;-79
2021/04/26 01:06:03;;;;;;;9.93;3.50;;;0.90;81.20;;;;;;5075277;28;20101;-80
2021/04/26 01:08:29;;;;;;;9.90;3.38;;;0.80;81.50;;;;;;5078680;28;20032;-81
2021/04/26 01:10:56;;;;;;;13.82;2.55;;;0.80;81.80;;;;;;5045551;28;20048;-79
2021/04/26 01:13:57;;;;;;;9.57;2.88;;;0.70;81.90;;;;;;5058101;28;20042;-78
2021/04/26 01:16:31;;;;;;;8.10;2.65;;;0.70;82.10;;;;;;5066872;28;20365;-77
2021/04/26 01:19:17;;;;;;;7.88;3.20;;;0.70;82.00;;;;;;5071849;28;20105;-80
2021/04/26 01:22:08;;;;;;;8.38;2.90;;;0.70;81.90;;;;;;5064130;28;20418;-78
2021/04/26 01:24:56;;;;;;;10.88;2.92;;;0.60;82.10;;;;;;5068603;28;20093;-80
2021/04/26 01:27:44;;;;;;;10.68;2.97;;;0.60;82.10;;;;;;5071660;28;20028;-80
2021/04/26 01:30:31;;;;;;;11.95;3.17;;;0.60;82.00;;;;;;5076673;28;20894;-80
2021/04/26 01:33:04;;;;;;;8.18;2.88;;;0.60;82.20;;;;;;5077442;28;20040;-78
2021/04/26 01:35:31;;;;;;;8.50;2.63;;;0.50;82.10;;;;;;5071077;28;20043;-79
2021/04/26 01:38:11;;;;;;;9.65;2.88;;;0.50;82.40;;;;;;5059361;28;20542;-80
2021/04/26 01:40:44;;;;;;;7.57;2.75;;;0.50;82.50;;;;;;5073132;28;20047;-80
2021/04/26 01:43:13;;;;;;;4.72;2.50;;;0.50;82.40;;;;;;5075277;28;20227;-79
2021/04/26 01:45:40;;;;;;;11.77;2.97;;;0.40;82.20;;;;;;5076139;28;20104;-78
2021/04/26 01:48:06;;;;;;;9.82;2.90;;;0.40;82.20;;;;;;5079532;28;20115;-80
2021/04/26 01:50:32;;;;;;;12.20;2.75;;;0.50;83.10;;;;;;5077742;28;20130;-80
2021/04/26 01:52:59;;;;;;;12.77;3.55;;;0.40;82.40;;;;;;5066079;28;20071;-80
2021/04/26 01:55:26;;;;;;;9.52;2.80;;;0.30;83.20;;;;;;5081799;28;20036;-78
2021/04/26 01:57:55;;;;;;;9.90;2.95;;;0.40;82.60;;;;;;5061667;28;20051;-80
2021/04/26 02:00:24;;;;;;;8.82;3.05;;;0.30;82.70;;;;;;5059108;28;20090;-81
2021/04/26 02:02:53;;;;;;;10.85;2.80;;;0.30;82.70;;;;;;5077936;28;20433;-80
2021/04/26 02:05:19;;;;;;;8.75;3.28;;;0.30;82.50;;;;;;5072693;28;20028;-78
2021/04/26 02:07:47;;;;;;;9.27;3.10;;;0.20;82.50;;;;;;5062969;28;20044;-79
2021/04/26 02:10:15;;;;;;;8.73;2.63;;;0.20;82.60;;;;;;5076232;28;20079;-78
2021/04/26 02:12:43;;;;;;;12.25;3.00;;;0.30;82.80;;;;;;5111839;27;20036;-80
2021/04/26 02:15:12;;;;;;;7.32;2.50;;;0.20;82.80;;;;;;5096297;28;20043;-79
2021/04/26 02:17:39;;;;;;;14.00;2.72;;;0.10;82.80;;;;;;5079228;28;20032;-79
2021/04/26 02:20:07;;;;;;;10.45;2.90;;;0.10;83.00;;;;;;5084473;28;20085;-77
2021/04/26 02:22:33;;;;;;;7.93;2.88;;;0.10;82.90;;;;;;5085988;28;20028;-79
2021/04/26 02:24:59;;;;;;;9.60;2.70;;;0.10;83.00;;;;;;5092313;27;20031;-80
2021/04/26 02:27:25;;;;;;;6.85;2.63;;;0.10;83.00;;;;;;5073891;28;20036;-78
2021/04/26 02:29:52;;;;;;;12.60;2.63;;;0.20;83.30;;;;;;5090709;28;20032;-78
2021/04/26 02:32:47;;;;;;;7.75;2.90;;;0.10;83.40;;;;;;5078050;28;20051;-77
2021/04/26 02:35:16;;;;;;;6.47;2.90;;;0.10;83.40;;;;;;5077324;28;20039;-79
2021/04/26 02:37:58;;;;;;;10.10;3.03;;;0.10;83.30;;;;;;5069693;28;20082;-78
2021/04/26 02:40:25;;;;;;;11.23;3.00;;;0.00;83.40;;;;;;5068236;28;20372;-79
2021/04/26 02:42:54;;;;;;;8.60;2.67;;;0.00;83.40;;;;;;5067678;28;20051;-78
2021/04/26 02:45:25;;;;;;;7.20;2.90;;;0.00;83.30;;;;;;5079270;28;20063;-77
2021/04/26 02:47:52;;;;;;;6.32;3.10;;;0.00;83.50;;;;;;5076020;28;20047;-79
2021/04/26 02:50:25;;;;;;;12.25;2.88;;;0.00;83.50;;;;;;5081969;28;20401;-79
2021/04/26 02:52:51;;;;;;;;;;;0.10;83.60;;;;;;5086593;28;20044;-77
2021/04/26 02:55:20;;;;;;;8.88;2.85;;;0.00;84.10;;;;;;5070752;28;20393;-79
2021/04/26 02:57:48;;;;;;;7.18;2.50;;;0.00;83.20;;;;;;5064153;28;20024;-79
2021/04/26 03:00:18;;;;;;;9.13;3.35;;;-0.10;83.50;;;;;;5066164;28;20059;-80
2021/04/26 03:02:45;;;;;;;7.97;2.80;;;-0.10;83.20;;;;;;5068770;28;20153;-77
2021/04/26 03:05:13;;;;;;;7.78;2.55;;;-0.10;83.00;;;;;;5049091;28;20501;-77
2021/04/26 03:07:40;;;;;;;8.35;3.25;;;-0.10;83.10;;;;;;5068295;28;20479;-79
2021/04/26 03:10:10;;;;;;;10.15;3.05;;;-0.10;83.30;;;;;;5074343;28;20043;-79
2021/04/26 03:12:38;;;;;;;7.28;2.72;;;-0.10;83.30;;;;;;5066941;28;20028;-79
2021/04/26 03:15:11;;;;;;;10.27;3.10;;;-0.10;83.50;;;;;;5055753;28;20043;-80
2021/04/26 03:17:38;;;;;;;8.02;3.15;;;-0.20;83.50;;;;;;5068423;28;20441;-80
2021/04/26 03:20:12;;;;;;;7.97;2.65;;;-0.20;83.50;;;;;;5098615;27;20140;-79
2021/04/26 03:22:44;;;;;;;13.60;4.10;;;-0.30;83.80;;;;;;5069408;28;20036;-78
2021/04/26 03:25:10;;;;;;;14.35;3.33;;;-0.30;83.60;;;;;;5072045;28;20024;-76
2021/04/26 03:27:40;;;;;;;7.53;2.85;;;-0.20;83.80;;;;;;5072486;28;20119;-80
2021/04/26 03:30:08;;;;;;;5.80;2.45;;;-0.30;83.50;;;;;;5063539;28;20056;-77
2021/04/26 03:32:35;;;;;;;6.60;2.92;;;-0.30;83.70;;;;;;5073544;28;20032;-79
2021/04/26 03:35:03;;;;;;;13.88;4.15;;;-0.30;84.40;;;;;;5069458;28;20036;-77
2021/04/26 03:37:33;;;;;;;9.18;3.08;;;-0.40;83.80;;;;;;5053625;28;20032;-76
2021/04/26 03:39:59;;;;;;;10.07;2.95;;;-0.40;83.80;;;;;;5062808;28;20028;-78
2021/04/26 03:42:26;;;;;;;12.13;3.17;;;-0.40;84.10;;;;;;5069751;28;20445;-78
2021/04/26 03:44:51;;;;;;;6.00;2.80;;;-0.50;84.30;;;;;;5066613;28;20509;-79
2021/04/26 03:47:17;;;;;;;9.82;3.15;;;-0.50;84.30;;;;;;5081227;27;20126;-80
2021/04/26 03:49:43;;;;;;;11.18;2.90;;;-0.50;84.30;;;;;;5080023;27;20139;-78
2021/04/26 03:52:09;;;;;;;12.43;3.78;;;-0.50;84.60;;;;;;5049423;28;20563;-78
2021/04/26 03:54:36;;;;;;;10.20;3.22;;;-0.50;84.80;;;;;;5061681;28;20040;-80
2021/04/26 03:57:03;;;;;;;10.15;4.00;;;-0.50;84.60;;;;;;5064201;28;20044;-79
2021/04/26 03:59:29;;;;;;;8.35;3.22;;;-0.50;84.80;;;;;;5060979;28;20040;-77
2021/04/26 04:01:55;;;;;;;10.63;3.22;;;-0.50;84.80;;;;;;5067064;28;20213;-80
2021/04/26 04:04:22;;;;;;;6.93;2.97;;;-0.50;84.90;;;;;;5069691;28;20043;-80
2021/04/26 04:06:47;;;;;;;8.98;3.03;;;-0.60;85.00;;;;;;5066568;28;20043;-77
2021/04/26 04:09:17;;;;;;;8.18;3.05;;;-0.60;85.30;;;;;;5057836;28;20024;-76
2021/04/26 04:11:44;;;;;;;13.63;3.13;;;-0.60;85.20;;;;;;5096869;27;20028;-78
2021/04/26 04:14:10;;;;;;;13.60;3.28;;;-0.50;85.10;;;;;;5050935;28;20040;-78
2021/04/26 04:16:36;;;;;;;9.88;3.70;;;-0.60;85.30;;;;;;5051299;28;20293;-80
2021/04/26 04:19:02;;;;;;;8.20;2.97;;;-0.60;85.30;;;;;;5094219;27;20040;-78
2021/04/26 04:21:27;;;;;;;8.70;3.20;;;-0.60;85.10;;;;;;5053540;28;20036;-77
2021/04/26 04:23:53;;;;;;;8.52;3.53;;;-0.60;85.20;;;;;;5078076;28;20523;-79
2021/04/26 04:26:19;;;;;;;9.88;3.35;;;-0.60;85.10;;;;;;5066963;28;20470;-78
2021/04/26 04:28:46;;;;;;;10.98;4.38;;;-0.60;85.10;;;;;;5062927;28;20035;-81
2021/04/26 04:31:12;;;;;;;6.22;3.08;;;-0.50;85.30;;;;;;5064193;28;20502;-80
2021/04/26 04:33:38;;;;;;;10.13;3.08;;;-0.50;85.40;;;;;;5065478;28;20040;-78
2021/04/26 04:36:04;;;;;;;12.27;3.50;;;-0.50;85.30;;;;;;5068283;28;20074;-79
2021/04/26 04:38:30;;;;;;;16.17;3.10;;;-0.50;85.40;;;;;;5057335;28;20035;-77
2021/04/26 04:40:56;;;;;;;8.60;4.35;;;-0.50;85.20;;;;;;5078896;28;20032;-79
2021/04/26 04:43:22;;;;;;;10.35;3.60;;;-0.50;85.30;;;;;;5081386;28;20106;-81
2021/04/26 04:45:49;;;;;;;9.40;3.58;;;-0.50;86.10;;;;;;5047631;28;20074;-79
2021/04/26 04:48:15;;;;;;;10.02;3.50;;;-0.40;85.60;;;;;;5067227;28;20051;-78
2021/04/26 04:50:41;;;;;;;6.80;3.33;;;-0.40;85.80;;;;;;5077653;28;20036;-77
2021/04/26 04:53:07;;;;;;;16.10;3.90;;;-0.40;85.90;;;;;;5085509;28;20028;-76
2021/04/26 04:55:33;;;;;;;14.98;4.28;;;-0.30;86.10;;;;;;5044782;28;20036;-79
2021/04/26 04:57:59;;;;;;;12.25;3.88;;;-0.30;86.00;;;;;;5077068;27;20066;-76
2021/04/26 05:00:27;;;;;;;15.05;4.45;;;-0.30;86.20;;;;;;5093164;27;20041;-80
2021/04/26 05:02:53;;;;;;;10.82;3.80;;;-0.20;86.00;;;;;;5060103;28;20112;-80
2021/04/26 05:05:19;;;;;;;8.77;3.63;;;-0.10;86.30;;;;;;5055970;28;20123;-79
2021/04/26 05:07:44;;;;;;;8.20;3.53;;;0.00;86.30;;;;;;5055356;28;20044;-78
2021/04/26 05:10:11;;;;;;;10.35;3.70;;;0.00;86.10;;;;;;5055696;28;20055;-80
2021/04/26 05:12:37;;;;;;;10.75;3.05;;;0.10;86.00;;;;;;5076489;28;20609;-80
2021/04/26 05:15:03;;;;;;;9.73;4.00;;;0.10;85.90;;;;;;5064913;28;20039;-79
2021/04/26 05:17:31;;;;;;;10.50;4.30;;;0.10;85.70;;;;;;5049512;28;20039;-79
2021/04/26 05:19:58;;;;;;;11.18;3.72;;;0.20;85.80;;;;;;5067255;28;20036;-79
2021/04/26 05:22:25;;;;;;;11.85;4.40;;;0.20;85.70;;;;;;5074941;28;20040;-79
2021/04/26 05:24:51;;;;;;;12.57;3.97;;;0.40;85.90;;;;;;5074633;28;20052;-77
2021/04/26 05:27:17;;;;;;;10.50;3.95;;;0.40;85.90;;;;;;5076610;28;20032;-77
2021/04/26 05:29:43;;;;;;;15.82;4.70;;;0.40;85.80;;;;;;5076017;28;20034;-78
2021/04/26 05:32:08;;;;;;;8.68;4.32;;;0.60;85.90;;;;;;5088527;28;20040;-79
2021/04/26 05:34:34;;;;;;;9.07;3.30;;;0.60;86.00;;;;;;5068670;28;20093;-79
2021/04/26 05:37:00;;;;;;;10.85;4.15;;;0.70;85.90;;;;;;5106010;28;20865;-80
2021/04/26 05:39:26;;;;;;;12.00;4.38;;;0.80;85.80;;;;;;5082277;28;20044;-79
2021/04/26 05:41:52;;;;;;;13.68;4.32;;;1.00;85.90;;;;;;5081960;28;20028;-80
2021/04/26 05:44:17;;;;;;;8.32;3.45;;;1.10;85.80;;;;;;5095721;28;20073;-78
2021/04/26 05:46:43;;;;;;;7.82;3.92;;;1.20;85.80;;;;;;5084880;28;20091;-80
2021/04/26 05:49:09;;;;;;;13.00;4.03;;;1.20;85.60;;;;;;5051391;28;20064;-77
2021/04/26 05:51:35;;;;;;;10.68;4.03;;;1.40;85.60;;;;;;5064962;28;20067;-77
2021/04/26 05:54:01;;;;;;;13.75;4.90;;;1.50;85.70;;;;;;5061219;28;20658;-78
2021/04/26 05:56:26;;;;;;;13.18;4.40;;;1.60;85.80;;;;;;5067166;28;20050;-78
2021/04/26 05:58:53;;;;;;;15.57;4.57;;;1.70;85.90;;;;;;5068077;28;20163;-79
2021/04/26 06:01:19;;;;;;;10.35;4.55;;;1.80;86.30;;;;;;5090316;27;20430;-77
2021/04/26 06:03:45;;;;;;;9.88;4.10;;;1.90;86.60;;;;;;5086338;28;20939;-80
2021/04/26 06:06:10;;;;;;;13.73;5.10;;;2.10;87.20;;;;;;5081452;28;20120;-80
2021/04/26 06:08:36;;;;;;;16.75;4.65;;;2.20;87.30;;;;;;5088645;28;20501;-81
2021/04/26 06:11:03;;;;;;;15.00;4.10;;;2.50;87.60;;;;;;5068890;28;20429;-80
2021/04/26 06:13:28;;;;;;;15.73;4.05;;;2.60;87.90;;;;;;5084739;28;20044;-80
2021/04/26 06:15:54;;;;;;;15.88;4.20;;;2.80;88.00;;;;;;5085714;28;20031;-79
2021/04/26 06:18:22;;;;;;;14.63;4.43;;;3.20;90.40;;;;;;5052749;28;20047;-80
2021/04/26 06:20:50;;;;;;;10.98;3.08;;;3.40;88.50;;;;;;5073301;28;20110;-77
2021/04/26 06:23:17;;;;;;;13.75;3.70;;;3.70;88.40;;;;;;5083570;28;20501;-79
2021/04/26 06:25:44;;;;;;;12.13;3.67;;;4.00;89.20;;;;;;5080277;28;20032;-81
2021/04/26 06:28:14;;;;;;;16.95;3.00;;;4.20;87.90;;;;;;5063982;28;20040;-81
2021/04/26 06:30:41;;;;;;;13.75;3.83;;;4.40;87.50;;;;;;5071893;28;20073;-76
2021/04/26 06:33:15;;;;;;;7.90;2.80;;;4.50;87.00;;;;;;5068457;28;20149;-77
2021/04/26 06:35:45;;;;;;;10.27;2.97;;;4.70;86.40;;;;;;5055296;28;20048;-79
2021/04/26 06:38:11;;;;;;;4.80;2.63;;;4.80;86.30;;;;;;5048615;28;20072;-80
2021/04/26 06:40:38;;;;;;;10.88;3.08;;;5.00;85.90;;;;;;5066372;28;20028;-78
2021/04/26 06:43:04;;;;;;;13.73;3.00;;;5.20;85.90;;;;;;5064222;28;20044;-80
2021/04/26 06:45:30;;;;;;;12.05;3.00;;;5.30;85.20;;;;;;5066453;28;20032;-77
2021/04/26 06:47:56;;;;;;;8.55;3.30;;;5.40;84.60;;;;;;5044989;28;20055;-79
2021/04/26 06:50:23;;;;;;;10.38;3.25;;;5.50;84.30;;;;;;5064730;28;20028;-77
2021/04/26 06:52:50;;;;;;;10.38;3.15;;;5.60;84.00;;;;;;5071257;28;20509;-79
2021/04/26 06:55:16;;;;;;;8.98;2.55;;;5.80;83.10;;;;;;5068262;28;20395;-80
2021/04/26 06:57:43;;;;;;;9.90;2.72;;;5.90;82.70;;;;;;5053354;28;20695;-76
2021/04/26 07:00:11;;;;;;;10.77;2.55;;;6.00;82.20;;;;;;5066906;28;20036;-80
2021/04/26 07:02:37;;;;;;;10.77;2.55;;;6.10;80.80;;;;;;5076498;28;20040;-77
2021/04/26 07:05:03;;;;;;;9.82;2.38;;;6.10;80.30;;;;;;5066243;28;20059;-78
2021/04/26 07:07:29;;;;;;;8.43;1.80;;;6.20;79.90;;;;;;5049516;28;20388;-79
2021/04/26 07:09:55;;;;;;;11.73;2.53;;;6.30;78.30;;;;;;5067655;28;20043;-77
2021/04/26 07:12:21;;;;;;;8.95;3.30;;;6.40;78.00;;;;;;5083770;28;20112;-78
2021/04/26 07:14:47;;;;;;;9.45;2.50;;;6.40;77.00;;;;;;5061112;28;20052;-79
2021/04/26 07:17:13;;;;;;;7.85;2.08;;;6.50;76.50;;;;;;5064991;28;20087;-79
2021/04/26 07:19:38;;;;;;;4.60;2.17;;;6.50;75.00;;;;;;5072730;28;20062;-77
2021/04/26 07:22:04;;;;;;;6.15;1.90;;;6.70;75.30;;;;;;5068757;28;20066;-80
2021/04/26 07:24:30;;;;;;;5.45;1.58;;;6.70;75.10;;;;;;5048924;28;20051;-78
2021/04/26 07:26:56;;;;;;;5.55;2.08;;;6.80;73.50;;;;;;5062616;28;20459;-77
2021/04/26 07:29:23;;;;;;;5.78;1.52;;;6.90;73.30;;;;;;5080629;28;20048;-78
2021/04/26 07:31:48;;;;;;;4.55;2.05;;;7.00;73.00;;;;;;5064179;28;20036;-78
2021/04/26 07:34:14;;;;;;;4.78;1.95;;;7.10;73.30;;;;;;5062484;28;20074;-78
2021/04/26 07:36:40;;;;;;;4.80;1.67;;;7.20;73.50;;;;;;5063767;28;20039;-81
2021/04/26 07:39:07;;;;;;;6.88;1.85;;;7.30;73.20;;;;;;5048997;28;20500;-79
2021/04/26 07:41:33;;;;;;;9.98;1.73;;;7.40;72.90;;;;;;5100951;27;20109;-81
2021/04/26 07:43:59;;;;;;;9.02;1.95;;;7.50;72.50;;;;;;5069107;28;20032;-80
2021/04/26 07:46:24;;;;;;;9.05;1.88;;;7.50;71.70;;;;;;5071201;28;20040;-81
2021/04/26 07:48:50;;;;;;;7.00;1.67;;;7.60;71.40;;;;;;5047928;28;20051;-80
2021/04/26 07:51:17;;;;;;;4.80;1.80;;;7.60;71.80;;;;;;5063508;28;20091;-78
2021/04/26 07:53:47;;;;;;;7.93;2.08;;;7.70;71.50;;;;;;5069046;28;20066;-80
2021/04/26 07:56:13;;;;;;;3.03;1.50;;;7.80;71.50;;;;;;5058249;28;20036;-82
2021/04/26 07:58:38;;;;;;;7.10;2.25;;;8.00;71.30;;;;;;5037905;28;20518;-81
2021/04/26 08:01:05;;;;;;;7.63;2.45;;;8.10;70.90;;;;;;5067844;28;20052;-79
2021/04/26 08:03:31;;;;;;;5.47;1.88;;;8.30;70.10;;;;;;5067278;28;20051;-80
2021/04/26 08:05:57;;;;;;;12.77;1.55;;;8.40;69.40;;;;;;5064924;28;20047;-80
2021/04/26 08:08:23;;;;;;;7.05;2.00;;;8.50;68.40;;;;;;5091241;28;20459;-78
2021/04/26 08:10:50;;;;;;;8.10;1.83;;;8.70;68.60;;;;;;5074726;28;20040;-79
2021/04/26 08:13:15;;;;;;;7.03;1.60;;;8.90;66.90;;;;;;5085517;28;21400;-81
2021/04/26 08:15:42;;;;;;;4.57;1.55;;;9.00;66.90;;;;;;5078429;28;20432;-82
2021/04/26 08:18:08;;;;;;;5.95;1.63;;;9.10;65.70;;;;;;5089883;28;20028;-81
2021/04/26 08:20:35;;;;;;;8.38;1.52;;;9.20;65.10;;;;;;5063375;28;20054;-83
2021/04/26 08:23:03;;;;;;;9.73;2.00;;;9.30;63.40;;;;;;5062920;28;20458;-81
2021/04/26 08:25:31;;;;;;;8.30;1.50;;;9.40;64.20;;;;;;5065620;28;20040;-85
2021/04/26 08:27:58;;;;;;;5.78;1.52;;;9.40;64.00;;;;;;5053971;28;20038;-82
2021/04/26 08:30:24;;;;;;;3.47;1.13;;;9.50;62.60;;;;;;5049292;28;20335;-87
2021/04/26 08:32:50;;;;;;;6.68;1.80;;;9.50;62.00;;;;;;5066437;28;20266;-83
2021/04/26 08:35:16;;;;;;;10.65;1.70;;;9.40;61.40;;;;;;5077953;28;20035;-86
2021/04/26 08:37:42;;;;;;;2.65;1.20;;;9.30;61.60;;;;;;5067629;28;20337;-80
2021/04/26 08:40:08;;;;;;;6.00;1.60;;;9.20;61.10;;;;;;5063761;28;20036;-77
2021/04/26 08:42:34;;;;;;;4.70;1.55;;;9.00;60.40;;;;;;5049860;28;20036;-81
2021/04/26 08:45:01;;;;;;;7.07;2.05;;;8.90;60.50;;;;;;5064543;28;20046;-82
2021/04/26 08:47:27;;;;;;;8.32;1.60;;;8.90;60.00;;;;;;5062332;28;20070;-78
2021/04/26 08:49:58;;;;;;;3.47;1.33;;;8.90;58.50;;;;;;5056137;28;20044;-84
2021/04/26 08:52:25;;;;;;;6.57;2.15;;;8.90;58.90;;;;;;5060509;28;20511;-83
2021/04/26 08:54:51;;;;;;;5.65;1.70;;;8.90;59.20;;;;;;5060131;28;20044;-82
2021/04/26 08:57:18;;;;;;;5.63;1.48;;;8.90;59.20;;;;;;5063986;28;20133;-82
2021/04/26 08:59:45;;;;;;;3.03;1.23;;;9.10;60.10;;;;;;5059432;28;20593;-82
2021/04/26 09:02:13;;;;;;;5.60;1.20;;;9.30;59.30;;;;;;5058728;28;20368;-84
2021/04/26 09:04:49;;;;;;;4.68;1.58;;;9.50;58.40;;;;;;5057895;28;20679;-79
2021/04/26 09:07:16;;;;;;;4.05;1.42;;;9.50;57.30;;;;;;5056881;28;20139;-81
2021/04/26 09:09:44;;;;;;;5.40;1.60;;;9.60;57.10;;;;;;5051311;28;20032;-80
2021/04/26 09:12:25;;;;;;;3.53;1.48;;;9.70;56.30;;;;;;5059217;28;20089;-82
2021/04/26 09:14:59;;;;;;;8.10;1.52;;;9.80;55.60;;;;;;5062228;28;20063;-84
2021/04/26 09:17:26;;;;;;;8.52;1.75;;;9.90;54.60;;;;;;5088593;27;20046;-79
2021/04/26 09:19:53;;;;;;;7.78;1.90;;;9.90;55.00;;;;;;5065164;28;20090;-80
2021/04/26 09:22:48;;;;;;;6.13;1.50;;;9.90;55.20;;;;;;5068602;28;20297;-79
2021/04/26 09:25:32;;;;;;;5.70;1.70;;;10.00;54.50;;;;;;5070699;28;20088;-80
2021/04/26 09:27:59;;;;;;;7.18;1.90;;;10.10;52.50;;;;;;5063893;28;20041;-81
2021/04/26 09:30:35;;;;;;;6.55;2.15;;;10.10;52.60;;;;;;5067370;28;20157;-81
2021/04/26 09:33:29;;;;;;;4.95;1.90;;;10.10;52.80;;;;;;5065443;28;20032;-84
2021/04/26 09:36:22;;;;;;;5.05;1.90;;;10.00;53.70;;;;;;5080765;28;20040;-80
2021/04/26 09:38:50;;;;;;;8.50;2.13;;;10.20;54.40;;;;;;5072532;28;20040;-81
2021/04/26 09:41:26;;;;;;;5.50;1.80;;;10.30;53.50;;;;;;5050541;28;20071;-82
2021/04/26 09:44:01;;;;;;;5.30;1.90;;;10.40;52.90;;;;;;5073358;28;20047;-80
2021/04/26 09:46:42;;;;;;;5.85;1.52;;;10.40;52.80;;;;;;5065173;28;20032;-83
2021/04/26 09:49:12;;;;;;;6.43;1.77;;;10.50;51.00;;;;;;5076365;28;20040;-81
2021/04/26 09:51:38;;;;;;;4.20;1.60;;;10.50;50.70;;;;;;5071651;28;20797;-80
2021/04/26 09:54:05;;;;;;;4.53;1.48;;;10.40;50.10;;;;;;5072455;28;20039;-80
2021/04/26 09:56:43;;;;;;;3.15;1.60;;;10.40;50.50;;;;;;5075697;28;20188;-79
2021/04/26 09:59:11;;;;;;;4.82;1.48;;;10.50;49.70;;;;;;5080632;28;20119;-79
2021/04/26 10:01:37;;;;;;;6.38;1.92;;;10.60;50.00;;;;;;5066685;28;20032;-82
2021/04/26 10:04:05;;;;;;;3.67;1.40;;;10.80;49.90;;;;;;5069265;28;20369;-80
2021/04/26 10:06:31;;;;;;;3.65;1.48;;;10.80;48.30;;;;;;5076019;28;20549;-79
2021/04/26 10:09:00;;;;;;;4.85;1.70;;;10.80;48.10;;;;;;5071052;28;20036;-79
2021/04/26 10:11:28;;;;;;;3.58;1.40;;;10.70;48.00;;;;;;5070016;28;20063;-81
2021/04/26 10:14:17;;;;;;;5.47;1.90;;;10.60;48.60;;;;;;5087768;28;20130;-79
2021/04/26 10:16:54;;;;;;;5.50;1.70;;;10.70;46.30;;;;;;5065502;28;20044;-81
2021/04/26 10:19:45;;;;;;;4.60;1.40;;;10.70;47.50;;;;;;5066050;28;20328;-79
2021/04/26 10:22:12;;;;;;;5.00;1.65;;;10.70;47.20;;;;;;5081517;28;20086;-80
2021/04/26 10:24:53;;;;;;;5.97;1.60;;;10.80;46.90;;;;;;5060506;28;20078;-80
2021/04/26 10:27:34;;;;;;;4.53;1.42;;;10.80;45.70;;;;;;5092473;28;20678;-84
2021/04/26 10:30:03;;;;;;;4.03;1.42;;;10.80;46.10;;;;;;5050177;28;20105;-80
2021/04/26 10:32:29;;;;;;;2.88;1.33;;;10.90;46.20;;;;;;5062514;28;20456;-81
2021/04/26 10:34:55;;;;;;;4.60;1.63;;;10.80;45.30;;;;;;5064755;28;20036;-80
2021/04/26 10:37:27;;;;;;;4.63;1.63;;;10.90;47.10;;;;;;5073535;28;20377;-79
2021/04/26 10:39:58;;;;;;;2.08;1.40;;;11.10;46.80;;;;;;5079287;28;20316;-82
2021/04/26 10:42:41;;;;;;;3.92;1.58;;;11.30;46.70;;;;;;5080545;28;20141;-80
2021/04/26 10:45:13;;;;;;;3.95;1.30;;;11.40;45.80;;;;;;5078213;28;20108;-81
2021/04/26 10:47:39;;;;;;;4.67;1.43;;;11.40;45.80;;;;;;5081556;28;20296;-81
2021/04/26 10:50:05;;;;;;;3.42;1.23;;;11.40;44.80;;;;;;5068350;28;20119;-81
2021/04/26 10:52:33;;;;;;;5.15;1.40;;;11.30;44.70;;;;;;5078119;28;20414;-82
2021/04/26 10:55:11;;;;;;;3.10;1.40;;;11.40;45.20;;;;;;5074975;28;20422;-81
2021/04/26 10:57:41;;;;;;;3.42;1.48;;;11.40;44.80;;;;;;5077186;28;20111;-80
2021/04/26 11:00:22;;;;;;;6.05;1.52;;;11.60;45.60;;;;;;5087134;28;20036;-81
2021/04/26 11:02:50;;;;;;;5.68;1.55;;;11.70;44.70;;;;;;5080421;28;20127;-81
2021/04/26 11:05:18;;;;;;;5.03;1.30;;;11.80;45.00;;;;;;5075696;28;20048;-82
2021/04/26 11:07:48;;;;;;;4.43;1.50;;;11.90;45.40;;;;;;5068391;28;20046;-83
2021/04/26 11:10:29;;;;;;;5.05;1.63;;;12.10;44.60;;;;;;5075012;28;20035;-83
2021/04/26 11:13:00;;;;;;;3.05;1.40;;;12.10;43.90;;;;;;5073378;28;20040;-79
2021/04/26 11:15:27;;;;;;;5.93;1.70;;;12.10;44.80;;;;;;5080117;28;20032;-81
2021/04/26 11:17:56;;;;;;;4.22;1.83;;;12.10;44.10;;;;;;5076923;28;20991;-83
2021/04/26 11:20:25;;;;;;;6.95;1.70;;;12.00;42.40;;;;;;5074591;28;20267;-80
2021/04/26 11:22:54;;;;;;;5.53;1.65;;;11.90;42.50;;;;;;5048280;28;20064;-79
2021/04/26 11:25:40;;;;;;;3.20;1.60;;;11.90;42.80;;;;;;5061610;28;20094;-79
2021/04/26 11:28:09;;;;;;;7.95;1.98;;;11.80;41.90;;;;;;5067000;28;20029;-80
2021/04/26 11:30:36;;;;;;;3.28;1.73;;;11.70;42.30;;;;;;5064437;28;20060;-80
2021/04/26 11:33:04;;;;;;;7.95;1.80;;;11.60;43.10;;;;;;5072444;28;20036;-82
2021/04/26 11:35:31;;;;;;;3.22;1.65;;;11.80;43.60;;;;;;5077597;28;20024;-81
2021/04/26 11:37:57;;;;;;;3.47;1.77;;;11.80;43.90;;;;;;5083091;28;20028;-79
2021/04/26 11:40:26;;;;;;;9.90;2.05;;;11.90;43.90;;;;;;5082559;28;20403;-79
2021/04/26 11:43:00;;;;;;;5.00;2.00;;;12.10;44.50;;;;;;5074950;28;20302;-78
2021/04/26 11:45:26;;;;;;;4.57;2.03;;;12.30;44.50;;;;;;5086123;28;20064;-81
2021/04/26 11:47:52;;;;;;;3.55;1.90;;;12.50;44.10;;;;;;5083876;28;20066;-81
2021/04/26 11:50:17;;;;;;;4.95;1.77;;;12.60;45.30;;;;;;5074193;28;20089;-79
2021/04/26 11:52:43;;;;;;;4.03;1.80;;;12.80;43.90;;;;;;5061859;28;20571;-79
2021/04/26 11:55:17;;;;;;;4.63;1.80;;;12.80;43.40;;;;;;5066517;28;20033;-80
2021/04/26 11:57:48;;;;;;;3.35;1.80;;;12.80;43.20;;;;;;5073256;28;20043;-79
2021/04/26 12:00:16;;;;;;;7.20;1.90;;;12.90;43.40;;;;;;5075993;28;20127;-80
2021/04/26 12:02:46;;;;;;;3.47;1.52;;;13.00;43.90;;;;;;5087596;28;20042;-79
2021/04/26 12:05:21;;;;;;;6.10;1.83;;;13.10;42.80;;;;;;5086585;28;20111;-79
2021/04/26 12:07:49;;;;;;;3.90;1.85;;;13.20;43.60;;;;;;5079296;28;20048;-82
2021/04/26 12:10:17;;;;;;;5.07;1.60;;;13.30;43.70;;;;;;5087204;28;20040;-79
2021/04/26 12:12:44;;;;;;;4.78;1.70;;;13.40;42.50;;;;;;5081658;28;20024;-81
2021/04/26 12:15:19;;;;;;;10.48;1.88;;;13.30;41.70;;;;;;5074175;28;20097;-84
2021/04/26 12:17:49;;;;;;;4.43;2.00;;;13.30;42.20;;;;;;5080641;28;20047;-80
2021/04/26 12:20:23;;;;;;;8.73;2.03;;;13.30;42.70;;;;;;5084867;28;20032;-80
2021/04/26 12:22:52;;;;;;;9.82;1.85;;;13.30;42.90;;;;;;5083807;28;20032;-80
2021/04/26 12:25:19;;;;;;;5.00;1.90;;;13.40;43.30;;;;;;5065464;28;20105;-81
2021/04/26 12:27:45;;;;;;;6.50;2.25;;;13.70;43.40;;;;;;5064431;28;20039;-82
2021/04/26 12:30:17;;;;;;;3.80;2.10;;;13.90;43.60;;;;;;5060886;28;20036;-80
2021/04/26 12:32:44;;;;;;;3.72;1.98;;;14.10;41.80;;;;;;5067643;28;20032;-80
2021/04/26 12:35:13;;;;;;;7.78;1.98;;;13.90;42.10;;;;;;5069947;28;20382;-79
2021/04/26 12:37:50;;;;;;;6.57;1.88;;;14.10;41.10;;;;;;5067537;28;20031;-81
2021/04/26 12:40:49;;;;;;;5.35;1.98;;;13.90;40.90;;;;;;5066965;28;20509;-82
2021/04/26 12:43:15;;;;;;;6.43;2.22;;;13.60;41.50;;;;;;5037324;28;20060;-79
2021/04/26 12:45:45;;;;;;;6.63;2.28;;;13.70;42.50;;;;;;5072014;28;20184;-82
2021/04/26 12:48:12;;;;;;;6.85;2.05;;;14.00;42.10;;;;;;5076408;28;20063;-79
2021/04/26 12:50:41;;;;;;;5.75;2.22;;;14.10;41.60;;;;;;5064283;28;20043;-79
2021/04/26 12:53:10;;;;;;;7.63;2.08;;;14.10;41.10;;;;;;5066269;28;20275;-81
2021/04/26 12:55:59;;;;;;;8.60;2.45;;;14.10;40.90;;;;;;5077742;28;20031;-78
2021/04/26 12:58:25;;;;;;;5.70;2.20;;;14.00;40.80;;;;;;5064563;28;20044;-82